This is the latest recevied weather packets stored in our database for station/object BMCB-24. If no packets are shown the sender has not sent any weather packets the latest 10 day(s).
| Time | Temp. | Humidity | Pressure | Rain* | Wind** | Luminosity | Snow |
|---|---|---|---|---|---|---|---|
| 1778040054 | 9.44° C | 99% | 1006.5 hPa | 0 mm | - | 0 W/m² | - |
| 1778035855 | 10° C | 99% | 1006.7 hPa | 0 mm | - | 0 W/m² | - |
| 1778034056 | 10.56° C | 99% | 1006.6 hPa | 0 mm | - | 0 W/m² | - |
| 1778031655 | 10.56° C | 99% | 1006.6 hPa | 0.25 mm | - | 0 W/m² | - |
| 1778026855 | 11.11° C | 99% | 1007 hPa | 0 mm | - | 0 W/m² | - |
| 1778021464 | 11.11° C | 10% | 1007.5 hPa | 0 mm | - | - | - |
| 1778018462 | 11.11° C | 10% | 1007.8 hPa | 0 mm | - | - | - |
| 1778014268 | 11.11° C | 10% | 1008.2 hPa | 2.54 mm | - | - | - |
| 1778009472 | 11.11° C | 99% | 1007.9 hPa | 2.79 mm | - | 0 W/m² | - |
| 1778008866 | 11.11° C | 99% | 1007.9 hPa | 2.29 mm | - | 0 W/m² | - |
| 1778007067 | 11.67° C | 98% | 1007.9 hPa | 1.52 mm | - | 0 W/m² | - |
| 1778006469 | 11.67° C | 98% | 1007.8 hPa | 1.52 mm | - | 2 W/m² | - |
| 1778002266 | 12.22° C | 96% | 1007.9 hPa | 0 mm | - | 26 W/m² | - |
| 1778001659 | 12.22° C | 96% | 1007.9 hPa | 0 mm | - | 40 W/m² | - |
| 1777993262 | 12.22° C | 95% | 1008.5 hPa | 0.51 mm | - | 120 W/m² | - |
| 1777992659 | 12.22° C | 94% | 1008.6 hPa | 0.51 mm | - | 140 W/m² | - |
| 1777986659 | 12.22° C | 95% | 1009.1 hPa | 2.29 mm | - | 196 W/m² | - |
| 1777986061 | 12.22° C | 94% | 1009.1 hPa | 3.3 mm | - | 194 W/m² | - |
| 1777984860 | 12.78° C | 95% | 1009.1 hPa | 5.08 mm | - | 74 W/m² | - |
| 1777981259 | 13.33° C | 89% | 1009.1 hPa | 1.27 mm | - | 28 W/m² | - |
| 1777980059 | 13.89° C | 83% | 1008.9 hPa | 0 mm | - | 34 W/m² | - |
| 1777979460 | 14.44° C | 81% | 1008.9 hPa | 0 mm | - | 80 W/m² | - |
| 1777978861 | 14.44° C | 81% | 1009 hPa | 0 mm | - | 170 W/m² | - |
| 1777974059 | 13.89° C | 84% | 1009.5 hPa | 0 mm | - | 288 W/m² | - |
| 1777971657 | 13.89° C | 87% | 1009.7 hPa | 0 mm | - | 348 W/m² | - |
* Rain latest hour (hover to see other rain measurements)
** Current wind speed in m/s (hover to see current wind gust speed)